createdAt,value
2017-07-04T00:00:23.373Z,17.8
2017-07-04T00:01:33.897Z,17.71
2017-07-04T00:02:44.147Z,17.63
2017-07-04T00:03:54.413Z,17.47
2017-07-04T00:05:04.366Z,17.34
2017-07-04T00:06:14.313Z,17.23
2017-07-04T00:07:24.566Z,17.14
2017-07-04T00:08:34.830Z,17.13
2017-07-04T00:09:44.769Z,17.01
2017-07-04T00:10:55.028Z,17.01
2017-07-04T00:12:04.968Z,16.89
2017-07-04T00:13:15.216Z,16.86
2017-07-04T00:14:25.466Z,16.8
2017-07-04T00:15:35.755Z,16.79
2017-07-04T00:16:46.010Z,16.76
2017-07-04T00:17:56.264Z,16.72
2017-07-04T00:19:06.829Z,16.68
2017-07-04T00:20:17.073Z,16.62
2017-07-04T00:21:27.005Z,16.64
2017-07-04T00:22:36.940Z,16.51
2017-07-04T00:23:47.198Z,16.54
2017-07-04T00:24:57.402Z,16.51
2017-07-04T00:26:07.027Z,16.46
2017-07-04T00:27:17.293Z,16.41
2017-07-04T00:28:27.553Z,16.46
2017-07-04T00:29:37.501Z,16.46
2017-07-04T00:30:48.120Z,16.37
2017-07-04T00:31:57.442Z,16.44
2017-07-04T00:33:07.709Z,16.41
2017-07-04T00:34:17.667Z,16.39
2017-07-04T00:35:27.930Z,16.34
2017-07-04T00:36:38.491Z,16.29
2017-07-04T00:37:48.117Z,16.31
2017-07-04T00:38:58.077Z,16.29
2017-07-04T00:40:08.016Z,16.21
2017-07-04T00:41:18.267Z,16.25
2017-07-04T00:42:28.816Z,16.25
2017-07-04T00:43:39.077Z,16.24
2017-07-04T00:44:49.359Z,16.1
2017-07-04T00:45:59.610Z,16.09
2017-07-04T00:47:09.544Z,16.18
2017-07-04T00:48:20.154Z,16.21
2017-07-04T00:49:30.085Z,16.22
2017-07-04T00:50:40.351Z,16.21
2017-07-04T00:51:50.612Z,16.18
2017-07-04T00:53:00.890Z,16.26
2017-07-04T00:54:11.490Z,16.21
2017-07-04T00:55:21.453Z,16.25
2017-07-04T00:56:31.399Z,16.22
2017-07-04T00:57:41.027Z,16.25
2017-07-04T00:58:50.648Z,16.29
2017-07-04T01:00:00.855Z,16.28
2017-07-04T01:01:11.119Z,16.25
2017-07-04T01:02:21.393Z,16.18
2017-07-04T01:03:31.335Z,16.22
2017-07-04T01:04:41.599Z,16.28
2017-07-04T01:05:51.800Z,16.25
2017-07-04T01:07:02.062Z,16.25
2017-07-04T01:08:12.008Z,16.22
2017-07-04T01:09:22.266Z,16.09
2017-07-04T01:10:32.540Z,16.03
2017-07-04T01:11:43.062Z,15.99
2017-07-04T01:12:53.019Z,15.98
2017-07-04T01:14:03.303Z,15.81
2017-07-04T01:15:13.542Z,15.78
2017-07-04T01:16:23.804Z,15.8
2017-07-04T01:17:34.041Z,15.7
2017-07-04T01:18:43.981Z,15.72
2017-07-04T01:19:54.266Z,15.72
2017-07-04T01:21:04.530Z,15.72
2017-07-04T01:22:14.472Z,15.63
2017-07-04T01:23:24.409Z,15.67
2017-07-04T01:24:34.667Z,15.62
2017-07-04T01:25:44.932Z,15.62
2017-07-04T01:26:54.882Z,15.57
2017-07-04T01:28:04.507Z,15.57
2017-07-04T01:29:15.068Z,15.51
2017-07-04T01:30:25.325Z,15.5
2017-07-04T01:31:35.261Z,15.45
2017-07-04T01:32:45.213Z,15.51
2017-07-04T01:33:55.143Z,15.48
2017-07-04T01:35:05.748Z,15.54
2017-07-04T01:36:15.387Z,15.48
2017-07-04T01:37:25.343Z,15.5
2017-07-04T01:38:35.609Z,15.43
2017-07-04T01:39:45.556Z,15.43
2017-07-04T01:40:56.108Z,15.55
2017-07-04T01:42:06.080Z,15.45
2017-07-04T01:43:16.021Z,15.48
2017-07-04T01:44:25.947Z,15.39
2017-07-04T01:45:36.204Z,15.41
2017-07-04T01:46:46.141Z,15.45
2017-07-04T01:47:56.392Z,15.39
2017-07-04T01:49:06.658Z,15.44
2017-07-04T01:50:16.305Z,15.43
2017-07-04T01:51:26.572Z,15.44
2017-07-04T01:52:37.142Z,15.37
2017-07-04T01:53:47.402Z,15.35
2017-07-04T01:54:57.361Z,15.37
2017-07-04T01:56:07.303Z,15.36
2017-07-04T01:57:17.573Z,15.35
2017-07-04T01:58:27.814Z,15.27
2017-07-04T01:59:37.752Z,15.27
2017-07-04T02:00:48.019Z,15.3
2017-07-04T02:01:58.274Z,15.3
2017-07-04T02:03:08.524Z,15.29
2017-07-04T02:04:18.793Z,15.19
2017-07-04T02:05:28.742Z,15.22
2017-07-04T02:06:39.016Z,15.14
2017-07-04T02:07:48.968Z,15.22
2017-07-04T02:08:58.908Z,15.22
2017-07-04T02:10:09.515Z,15.12
2017-07-04T02:11:19.783Z,15.17
2017-07-04T02:12:29.710Z,15.23
2017-07-04T02:13:39.981Z,15.18
2017-07-04T02:14:50.239Z,15.23
2017-07-04T02:16:00.764Z,15.19
2017-07-04T02:17:11.030Z,15.23
2017-07-04T02:18:21.292Z,15.12
2017-07-04T02:19:31.224Z,15.14
2017-07-04T02:20:41.484Z,15.14
2017-07-04T02:21:51.728Z,15.19
2017-07-04T02:23:01.355Z,15.08
2017-07-04T02:24:11.307Z,15.04
2017-07-04T02:25:20.935Z,14.96
2017-07-04T02:26:30.563Z,14.97
2017-07-04T02:27:40.756Z,15
2017-07-04T02:28:50.706Z,15.11
2017-07-04T02:30:00.967Z,15.07
2017-07-04T02:31:10.926Z,15.07
2017-07-04T02:32:20.871Z,15.05
2017-07-04T02:33:31.067Z,14.97
2017-07-04T02:34:41.336Z,15.02
2017-07-04T02:35:51.289Z,15.02
2017-07-04T02:37:00.912Z,14.99
2017-07-04T02:38:11.168Z,14.96
2017-07-04T02:39:21.066Z,14.97
2017-07-04T02:40:31.051Z,14.97
2017-07-04T02:41:40.991Z,14.96
2017-07-04T02:42:50.921Z,14.96
2017-07-04T02:44:01.184Z,14.94
2017-07-04T02:45:11.434Z,14.93
2017-07-04T02:46:21.382Z,15
2017-07-04T02:47:30.997Z,15.05
2017-07-04T02:48:40.964Z,14.97
2017-07-04T02:49:50.913Z,14.9
2017-07-04T02:51:00.852Z,14.9
2017-07-04T02:52:10.803Z,14.89
2017-07-04T02:53:20.743Z,14.92
2017-07-04T02:54:30.691Z,14.86
2017-07-04T02:55:41.004Z,14.99
2017-07-04T02:56:51.562Z,14.94
2017-07-04T02:58:01.513Z,14.86
2017-07-04T02:59:11.463Z,14.9
2017-07-04T03:00:21.402Z,14.96
2017-07-04T03:01:31.348Z,14.87
2017-07-04T03:02:41.913Z,14.9
2017-07-04T03:03:52.184Z,14.89
2017-07-04T03:05:02.429Z,14.9
2017-07-04T03:06:12.683Z,14.85
2017-07-04T03:07:22.942Z,14.92
2017-07-04T03:08:32.878Z,14.92
2017-07-04T03:09:42.516Z,14.89
2017-07-04T03:10:52.473Z,14.92
2017-07-04T03:12:02.100Z,14.9
2017-07-04T03:13:12.340Z,14.92
2017-07-04T03:14:22.585Z,14.86
2017-07-04T03:15:32.857Z,14.87
2017-07-04T03:16:42.824Z,14.85
2017-07-04T03:17:53.105Z,14.79
2017-07-04T03:19:03.362Z,14.85
2017-07-04T03:20:13.304Z,14.73
2017-07-04T03:21:23.567Z,14.78
2017-07-04T03:22:33.505Z,14.81
2017-07-04T03:23:43.782Z,14.77
2017-07-04T03:24:54.053Z,14.79
2017-07-04T03:26:04.613Z,14.81
2017-07-04T03:27:14.566Z,14.74
2017-07-04T03:28:24.821Z,14.79
2017-07-04T03:29:35.081Z,14.77
2017-07-04T03:30:44.718Z,14.66
2017-07-04T03:31:55.239Z,14.61
2017-07-04T03:33:05.511Z,14.67
2017-07-04T03:34:15.449Z,14.66
2017-07-04T03:35:25.709Z,14.62
2017-07-04T03:36:35.965Z,14.66
2017-07-04T03:37:46.467Z,14.63
2017-07-04T03:38:56.417Z,14.67
2017-07-04T03:40:06.687Z,14.61
2017-07-04T03:41:16.637Z,14.58
2017-07-04T03:42:26.574Z,14.63
2017-07-04T03:43:37.082Z,14.63
2017-07-04T03:44:47.350Z,14.61
2017-07-04T03:45:57.614Z,14.66
2017-07-04T03:47:07.875Z,14.62
2017-07-04T03:48:17.835Z,14.63
2017-07-04T03:49:28.050Z,14.62
2017-07-04T03:50:38.363Z,14.66
2017-07-04T03:51:48.633Z,14.61
2017-07-04T03:52:58.896Z,14.59
2017-07-04T03:54:08.542Z,14.62
2017-07-04T03:55:18.747Z,14.61
2017-07-04T03:56:28.686Z,14.63
2017-07-04T03:57:38.614Z,14.66
2017-07-04T03:58:48.555Z,14.62
2017-07-04T03:59:58.821Z,14.77
2017-07-04T04:01:09.082Z,14.74
2017-07-04T04:02:19.345Z,14.74
2017-07-04T04:03:29.288Z,14.77
2017-07-04T04:04:39.560Z,14.74
2017-07-04T04:05:49.834Z,14.68
2017-07-04T04:07:00.027Z,14.74
2017-07-04T04:08:10.328Z,14.77
2017-07-04T04:09:20.592Z,14.77
2017-07-04T04:10:30.861Z,14.77
2017-07-04T04:11:40.800Z,14.77
2017-07-04T04:12:51.049Z,14.74
2017-07-04T04:14:01.314Z,14.78
2017-07-04T04:15:11.267Z,14.74
2017-07-04T04:16:21.213Z,14.79
2017-07-04T04:17:31.487Z,14.78
2017-07-04T04:18:41.414Z,14.86
2017-07-04T04:19:51.684Z,14.81
2017-07-04T04:21:01.954Z,14.79
2017-07-04T04:22:11.585Z,14.85
2017-07-04T04:23:21.841Z,14.86
2017-07-04T04:24:32.361Z,14.92
2017-07-04T04:25:41.689Z,14.9
2017-07-04T04:26:51.964Z,14.92
2017-07-04T04:28:01.626Z,15.02
2017-07-04T04:29:11.578Z,14.93
2017-07-04T04:30:22.316Z,14.94
2017-07-04T04:31:32.590Z,14.97
2017-07-04T04:32:42.538Z,14.9
2017-07-04T04:33:52.498Z,14.96
2017-07-04T04:35:02.760Z,15.02
2017-07-04T04:36:12.946Z,14.94
2017-07-04T04:37:23.213Z,15
2017-07-04T04:38:33.469Z,14.97
2017-07-04T04:39:43.423Z,14.99
2017-07-04T04:40:53.376Z,15
2017-07-04T04:42:03.904Z,14.97
2017-07-04T04:43:13.854Z,15.04
2017-07-04T04:44:23.811Z,14.97
2017-07-04T04:45:34.068Z,14.99
2017-07-04T04:46:44.326Z,15.08
2017-07-04T04:47:54.893Z,15.07
2017-07-04T04:49:04.517Z,14.97
2017-07-04T04:50:14.472Z,14.99
2017-07-04T04:51:24.728Z,15
2017-07-04T04:52:34.986Z,15.1
2017-07-04T04:53:45.505Z,15.1
2017-07-04T04:54:55.785Z,15.1
2017-07-04T04:56:05.420Z,15.05
2017-07-04T04:57:15.686Z,15.1
2017-07-04T04:58:25.643Z,15
2017-07-04T04:59:36.150Z,15.02
2017-07-04T05:00:46.408Z,15.12
2017-07-04T05:01:56.656Z,15.12
2017-07-04T05:03:06.609Z,15.08
2017-07-04T05:04:16.536Z,15.11
2017-07-04T05:05:26.787Z,15.1
2017-07-04T05:06:37.050Z,15.08
2017-07-04T05:07:47.319Z,15.17
2017-07-04T05:08:57.600Z,15.18
2017-07-04T05:10:07.871Z,15.18
2017-07-04T05:11:18.433Z,15.22
2017-07-04T05:12:29.004Z,15.25
2017-07-04T05:13:39.289Z,15.19
2017-07-04T05:14:49.558Z,15.15
2017-07-04T05:15:59.517Z,15.17
2017-07-04T05:17:09.767Z,15.18
2017-07-04T05:18:20.034Z,15.15
2017-07-04T05:19:29.986Z,15.22
2017-07-04T05:20:40.247Z,15.22
2017-07-04T05:21:50.499Z,15.17
2017-07-04T05:23:01.004Z,15.23
2017-07-04T05:24:10.948Z,15.15
2017-07-04T05:25:20.899Z,15.14
2017-07-04T05:26:31.158Z,15.14
2017-07-04T05:27:41.428Z,15.18
2017-07-04T05:28:51.993Z,15.17
2017-07-04T05:30:01.935Z,15.29
2017-07-04T05:31:12.194Z,15.27
2017-07-04T05:32:22.144Z,15.3
2017-07-04T05:33:32.093Z,15.27
2017-07-04T05:34:42.680Z,15.33
2017-07-04T05:35:52.949Z,15.26
2017-07-04T05:37:02.898Z,15.29
2017-07-04T05:38:12.863Z,15.29
2017-07-04T05:39:23.130Z,15.22
2017-07-04T05:40:33.340Z,15.29
2017-07-04T05:41:43.293Z,15.23
2017-07-04T05:42:53.597Z,15.27
2017-07-04T05:44:03.555Z,15.18
2017-07-04T05:45:13.824Z,15.27
2017-07-04T05:46:24.391Z,15.3
2017-07-04T05:47:34.662Z,15.29
2017-07-04T05:48:44.921Z,15.37
2017-07-04T05:49:54.235Z,15.33
2017-07-04T05:51:04.499Z,15.22
2017-07-04T05:52:14.713Z,15.25
2017-07-04T05:53:24.684Z,15.29
2017-07-04T05:54:34.963Z,15.17
2017-07-04T05:55:44.925Z,15.22
2017-07-04T05:56:54.876Z,15.18
2017-07-04T05:58:05.449Z,15.35
2017-07-04T05:59:15.388Z,15.44
2017-07-04T06:00:25.359Z,15.41
2017-07-04T06:01:35.321Z,15.39
2017-07-04T06:02:45.578Z,15.41
2017-07-04T06:03:55.827Z,15.36
2017-07-04T06:05:05.790Z,15.44
2017-07-04T06:06:15.427Z,15.48
2017-07-04T06:07:25.049Z,15.44
2017-07-04T06:08:35.000Z,15.48
2017-07-04T06:09:45.188Z,15.5
2017-07-04T06:10:55.134Z,15.43
2017-07-04T06:12:05.412Z,15.52
2017-07-04T06:13:15.693Z,15.57
2017-07-04T06:14:25.711Z,15.69
2017-07-04T06:15:35.934Z,15.8
2017-07-04T06:16:46.193Z,15.76
2017-07-04T06:17:56.460Z,15.75
2017-07-04T06:19:06.741Z,15.81
2017-07-04T06:20:17.054Z,15.8
2017-07-04T06:21:27.629Z,15.78
2017-07-04T06:22:37.605Z,15.78
2017-07-04T06:23:47.894Z,15.72
2017-07-04T06:24:58.194Z,15.76
2017-07-04T06:26:08.515Z,15.75
2017-07-04T06:27:19.153Z,15.73
2017-07-04T06:28:29.447Z,15.84
2017-07-04T06:29:39.740Z,15.92
2017-07-04T06:30:49.712Z,15.98
2017-07-04T06:31:59.694Z,15.87
2017-07-04T06:33:10.221Z,15.92
2017-07-04T06:34:20.211Z,16.06
2017-07-04T06:35:30.238Z,16.08
2017-07-04T06:36:40.211Z,16.06
2017-07-04T06:37:50.166Z,16.02
2017-07-04T06:39:00.993Z,16.1
2017-07-04T06:40:11.094Z,16
2017-07-04T06:41:21.061Z,15.84
2017-07-04T06:42:31.220Z,15.98
2017-07-04T06:43:41.533Z,16.02
2017-07-04T06:44:51.807Z,15.99
2017-07-04T06:46:01.775Z,15.96
2017-07-04T06:47:12.040Z,15.94
2017-07-04T06:48:22.305Z,16
2017-07-04T06:49:32.603Z,15.92
2017-07-04T06:50:42.855Z,15.99
2017-07-04T06:51:53.107Z,15.94
2017-07-04T06:53:03.447Z,16.09
2017-07-04T06:54:13.389Z,16.18
2017-07-04T06:55:23.683Z,16.26
2017-07-04T06:56:34.152Z,16.24
2017-07-04T06:57:44.109Z,16.25
2017-07-04T06:58:54.418Z,16.22
2017-07-04T07:00:04.130Z,16.18
2017-07-04T07:01:14.408Z,16.17
2017-07-04T07:02:24.923Z,16.31
2017-07-04T07:03:35.215Z,16.21
2017-07-04T07:04:45.521Z,16.25
2017-07-04T07:05:55.164Z,16.34
2017-07-04T07:07:05.122Z,16.34
2017-07-04T07:08:15.325Z,16.39
2017-07-04T07:09:24.918Z,16.44
2017-07-04T07:10:35.207Z,16.39
2017-07-04T07:11:45.155Z,16.49
2017-07-04T07:12:55.129Z,16.4
2017-07-04T07:14:05.655Z,16.39
2017-07-04T07:15:15.617Z,16.43
2017-07-04T07:16:25.906Z,16.55
2017-07-04T07:17:36.192Z,16.58
2017-07-04T07:18:46.458Z,16.61
2017-07-04T07:19:56.680Z,16.66
2017-07-04T07:21:06.651Z,16.54
2017-07-04T07:22:16.620Z,16.55
2017-07-04T07:23:26.934Z,16.47
2017-07-04T07:24:37.206Z,16.57
2017-07-04T07:25:47.715Z,16.39
2017-07-04T07:26:57.997Z,16.43
2017-07-04T07:28:07.954Z,16.37
2017-07-04T07:29:17.939Z,16.4
2017-07-04T07:30:28.201Z,16.37
2017-07-04T07:31:38.482Z,16.43
2017-07-04T07:32:48.121Z,16.49
2017-07-04T07:33:58.401Z,16.54
2017-07-04T07:35:08.662Z,16.58
2017-07-04T07:36:18.621Z,16.68
2017-07-04T07:37:28.519Z,16.54
2017-07-04T07:38:38.783Z,16.5
2017-07-04T07:39:49.098Z,16.57
2017-07-04T07:40:59.374Z,16.47
2017-07-04T07:42:09.042Z,16.43
2017-07-04T07:43:19.242Z,16.51
2017-07-04T07:44:29.530Z,16.54
2017-07-04T07:45:39.483Z,16.58
2017-07-04T07:46:49.460Z,16.54
2017-07-04T07:47:59.414Z,16.59
2017-07-04T07:49:09.621Z,16.62
2017-07-04T07:50:19.566Z,16.69
2017-07-04T07:51:29.535Z,16.73
2017-07-04T07:52:39.918Z,16.89
2017-07-04T07:53:50.230Z,16.82
2017-07-04T07:55:00.772Z,16.84
2017-07-04T07:56:11.087Z,17.07
2017-07-04T07:57:21.056Z,17.02
2017-07-04T07:58:31.334Z,16.97
2017-07-04T07:59:41.615Z,16.98
2017-07-04T08:00:51.871Z,16.98
2017-07-04T08:02:02.186Z,17.02
2017-07-04T08:03:12.493Z,16.89
2017-07-04T08:04:22.448Z,16.89
2017-07-04T08:05:32.955Z,16.8
2017-07-04T08:06:43.556Z,16.94
2017-07-04T08:07:53.835Z,16.92
2017-07-04T08:09:04.107Z,16.97
2017-07-04T08:10:14.056Z,17.05
2017-07-04T08:11:24.337Z,17.19
2017-07-04T08:12:34.838Z,17.24
2017-07-04T08:13:44.788Z,17.35
2017-07-04T08:14:54.784Z,17.46
2017-07-04T08:16:04.750Z,17.49
2017-07-04T08:17:15.029Z,17.59
2017-07-04T08:18:25.544Z,17.59
2017-07-04T08:19:35.169Z,17.53
2017-07-04T08:20:45.565Z,17.35
2017-07-04T08:21:55.811Z,17.39
2017-07-04T08:23:05.450Z,17.39
2017-07-04T08:24:15.951Z,17.27
2017-07-04T08:25:25.936Z,17.27
2017-07-04T08:26:36.197Z,17.22
2017-07-04T08:27:46.508Z,17.34
2017-07-04T08:28:56.462Z,17.37
2017-07-04T08:30:06.668Z,17.5
2017-07-04T08:31:16.320Z,17.52
2017-07-04T08:32:26.281Z,17.66
2017-07-04T08:33:36.253Z,17.75
2017-07-04T08:34:46.813Z,17.84
2017-07-04T08:35:57.334Z,18
2017-07-04T08:37:07.603Z,17.94
2017-07-04T08:38:17.892Z,17.75
2017-07-04T08:39:28.175Z,17.94
2017-07-04T08:40:38.157Z,17.93
2017-07-04T08:41:48.695Z,17.76
2017-07-04T08:42:58.670Z,17.68
2017-07-04T08:44:08.954Z,17.5
2017-07-04T08:45:19.277Z,17.52
2017-07-04T08:46:29.528Z,17.69
2017-07-04T08:47:40.066Z,17.84
2017-07-04T08:48:50.198Z,18.13
2017-07-04T08:50:00.159Z,18.08
2017-07-04T08:51:10.114Z,18.15
2017-07-04T08:52:19.748Z,18.24
2017-07-04T08:53:30.260Z,18.39
2017-07-04T08:54:40.212Z,18.7
2017-07-04T08:55:49.868Z,18.76
2017-07-04T08:56:59.545Z,19
2017-07-04T08:58:09.816Z,19.15
2017-07-04T08:59:19.718Z,19.23
2017-07-04T09:00:29.679Z,19.17
2017-07-04T09:01:39.633Z,19.22
2017-07-04T09:02:49.919Z,19.22
2017-07-04T09:04:00.187Z,19.32
2017-07-04T09:05:10.706Z,19.34
2017-07-04T09:06:20.987Z,19.34
2017-07-04T09:07:30.927Z,19.16
2017-07-04T09:08:41.197Z,18.96
2017-07-04T09:09:50.835Z,18.96
2017-07-04T09:11:01.080Z,18.96
2017-07-04T09:12:11.005Z,19.05
2017-07-04T09:13:21.291Z,18.74
2017-07-04T09:14:31.587Z,18.79
2017-07-04T09:15:41.852Z,18.82
2017-07-04T09:16:52.073Z,18.79
2017-07-04T09:18:02.589Z,18.85
2017-07-04T09:19:13.004Z,18.85
2017-07-04T09:20:23.279Z,18.78
2017-07-04T09:21:33.553Z,18.88
2017-07-04T09:22:43.820Z,18.94
2017-07-04T09:23:53.790Z,19.15
2017-07-04T09:25:04.057Z,19.48
2017-07-04T09:26:14.356Z,19.63
2017-07-04T09:27:24.652Z,19.59
2017-07-04T09:28:35.182Z,19.45
2017-07-04T09:29:45.447Z,19.48
2017-07-04T09:30:55.719Z,19.59
2017-07-04T09:32:05.370Z,19.49
2017-07-04T09:33:15.653Z,19.64
2017-07-04T09:34:25.863Z,19.53
2017-07-04T09:35:36.132Z,19.37
2017-07-04T09:36:46.416Z,19.53
2017-07-04T09:37:56.391Z,19.52
2017-07-04T09:39:05.712Z,19.71
2017-07-04T09:40:16.245Z,19.62
2017-07-04T09:41:26.540Z,19.56
2017-07-04T09:42:36.821Z,19.67
2017-07-04T09:43:47.105Z,19.72
2017-07-04T09:44:57.095Z,19.96
2017-07-04T09:46:07.371Z,20.18
2017-07-04T09:47:17.658Z,20.32
2017-07-04T09:48:27.622Z,20.48
2017-07-04T09:49:37.896Z,20.33
2017-07-04T09:50:47.233Z,20.04
2017-07-04T09:51:57.757Z,19.79
2017-07-04T09:53:08.020Z,19.44
2017-07-04T09:54:18.293Z,19.35
2017-07-04T09:55:28.565Z,19.34
2017-07-04T09:56:38.825Z,19.34
2017-07-04T09:57:49.426Z,19.48
2017-07-04T09:58:59.712Z,19.48
2017-07-04T10:00:10.075Z,19.53
2017-07-04T10:01:20.373Z,19.6
2017-07-04T10:02:30.707Z,19.66
2017-07-04T10:03:41.259Z,19.63
2017-07-04T10:04:51.557Z,19.78
2017-07-04T10:06:01.829Z,19.85
2017-07-04T10:07:11.805Z,19.71
2017-07-04T10:08:22.095Z,19.74
2017-07-04T10:09:31.997Z,19.78
2017-07-04T10:10:42.267Z,19.6
2017-07-04T10:11:52.564Z,19.42
2017-07-04T10:13:02.516Z,19.48
2017-07-04T10:14:12.787Z,19.66
2017-07-04T10:15:23.041Z,19.55
2017-07-04T10:16:32.987Z,19.53
2017-07-04T10:17:43.283Z,19.7
2017-07-04T10:18:53.252Z,19.66
2017-07-04T10:20:03.530Z,19.92
2017-07-04T10:21:14.106Z,20.32
2017-07-04T10:22:24.386Z,20.59
2017-07-04T10:23:34.352Z,20.53
2017-07-04T10:24:44.629Z,20.24
2017-07-04T10:25:54.909Z,19.78
2017-07-04T10:27:05.156Z,19.74
2017-07-04T10:28:15.079Z,19.78
2017-07-04T10:29:25.366Z,19.96
2017-07-04T10:30:35.360Z,19.85
2017-07-04T10:31:45.025Z,19.92
2017-07-04T10:32:54.921Z,19.85
2017-07-04T10:34:05.265Z,19.85
2017-07-04T10:35:15.551Z,19.81
2017-07-04T10:36:25.832Z,19.89
2017-07-04T10:37:36.101Z,19.96
2017-07-04T10:38:46.644Z,20.3
2017-07-04T10:39:56.309Z,20.26
2017-07-04T10:41:06.249Z,20.68
2017-07-04T10:42:15.908Z,20.9
2017-07-04T10:43:26.189Z,21.23
2017-07-04T10:44:36.769Z,21.3
2017-07-04T10:45:47.053Z,21.29
2017-07-04T10:46:57.373Z,21.47
2017-07-04T10:48:07.647Z,21.59
2017-07-04T10:49:17.620Z,21.6
2017-07-04T10:50:28.141Z,21.59
2017-07-04T10:51:38.461Z,21.84
2017-07-04T10:52:48.515Z,22.25
2017-07-04T10:53:58.820Z,22.28
2017-07-04T10:55:08.467Z,21.99
2017-07-04T10:56:18.712Z,21.32
2017-07-04T10:57:28.990Z,21.28
2017-07-04T10:58:38.936Z,21.22
2017-07-04T10:59:48.899Z,21.38
2017-07-04T11:00:59.187Z,21.43
2017-07-04T11:02:09.731Z,21.58
2017-07-04T11:03:20.197Z,21.32
2017-07-04T11:04:30.186Z,21.15
2017-07-04T11:05:40.467Z,21.15
2017-07-04T11:06:50.452Z,21.1
2017-07-04T11:08:00.978Z,21
2017-07-04T11:09:11.282Z,21.35
2017-07-04T11:10:21.247Z,21.62
2017-07-04T11:11:31.524Z,21.62
2017-07-04T11:12:41.797Z,21.91
2017-07-04T11:13:52.345Z,22.21
2017-07-04T11:15:02.008Z,22.43
2017-07-04T11:16:12.306Z,22.59
2017-07-04T11:17:22.834Z,22.89
2017-07-04T11:18:32.791Z,22.52
2017-07-04T11:19:43.304Z,22.31
2017-07-04T11:20:53.270Z,22.43
2017-07-04T11:22:03.558Z,22.28
2017-07-04T11:23:13.848Z,22.31
2017-07-04T11:24:24.122Z,22.47
2017-07-04T11:25:34.660Z,22.47
2017-07-04T11:26:44.607Z,22.14
2017-07-04T11:27:54.875Z,21.96
2017-07-04T11:29:05.162Z,22.26
2017-07-04T11:30:15.463Z,22.4
2017-07-04T11:31:26.048Z,22.55
2017-07-04T11:32:35.381Z,22.31
2017-07-04T11:33:45.354Z,22.1
2017-07-04T11:34:55.318Z,22.04
2017-07-04T11:36:05.290Z,22.01
2017-07-04T11:37:15.829Z,21.4
2017-07-04T11:38:25.813Z,21.22
2017-07-04T11:39:35.790Z,21.44
2017-07-04T11:40:45.777Z,21.59
2017-07-04T11:41:56.063Z,21.83
2017-07-04T11:43:06.638Z,21.89
2017-07-04T11:44:16.926Z,22.12
2017-07-04T11:45:27.242Z,22.47
2017-07-04T11:46:37.523Z,22.7
2017-07-04T11:47:47.794Z,22.86
2017-07-04T11:48:58.327Z,22.96
2017-07-04T11:50:08.610Z,23.02
2017-07-04T11:51:18.882Z,22.88
2017-07-04T11:52:28.839Z,22.67
2017-07-04T11:53:38.482Z,22.46
2017-07-04T11:54:49.015Z,22.14
2017-07-04T11:55:58.998Z,22.08
2017-07-04T11:57:08.967Z,22.34
2017-07-04T11:58:18.907Z,22.53
2017-07-04T11:59:29.179Z,22.41
2017-07-04T12:00:39.719Z,22.21
2017-07-04T12:01:50.010Z,21.84
2017-07-04T12:03:00.504Z,22.01
2017-07-04T12:04:10.787Z,22.3
2017-07-04T12:05:21.050Z,22.31
2017-07-04T12:06:31.259Z,22.18
2017-07-04T12:07:41.197Z,21.6
2017-07-04T12:08:51.488Z,21.65
2017-07-04T12:10:01.763Z,21.78
2017-07-04T12:11:11.414Z,21.92
2017-07-04T12:12:21.927Z,21.94
2017-07-04T12:13:31.876Z,21.56
2017-07-04T12:14:41.848Z,21.59
2017-07-04T12:15:51.823Z,21.54
2017-07-04T12:17:01.778Z,21.37
2017-07-04T12:18:12.324Z,21.66
2017-07-04T12:19:22.597Z,21.92
2017-07-04T12:20:32.556Z,22.21
2017-07-04T12:21:42.863Z,22.18
2017-07-04T12:22:53.151Z,22.36
2017-07-04T12:24:03.665Z,22.73
2017-07-04T12:25:13.640Z,22.86
2017-07-04T12:26:23.623Z,23.18
2017-07-04T12:27:33.592Z,23.14
2017-07-04T12:28:43.852Z,22.73
2017-07-04T12:29:54.081Z,22.36
2017-07-04T12:31:04.051Z,22.28
2017-07-04T12:32:14.006Z,22.31
2017-07-04T12:33:24.286Z,21.99
2017-07-04T12:34:34.264Z,21.91
2017-07-04T12:35:44.867Z,22
2017-07-04T12:36:55.123Z,21.99
2017-07-04T12:38:05.395Z,22.15
2017-07-04T12:39:15.362Z,22.12
2017-07-04T12:40:25.640Z,21.83
2017-07-04T12:41:36.184Z,21.63
2017-07-04T12:42:45.844Z,21.48
2017-07-04T12:43:55.824Z,21.66
2017-07-04T12:45:05.802Z,21.85
2017-07-04T12:46:16.080Z,22
2017-07-04T12:47:26.328Z,21.84
2017-07-04T12:48:35.979Z,21.22
2017-07-04T12:49:46.244Z,21.19
2017-07-04T12:50:56.545Z,21.3
2017-07-04T12:52:06.812Z,21.28
2017-07-04T12:53:17.344Z,21.33
2017-07-04T12:54:27.315Z,21.58
2017-07-04T12:55:37.569Z,21.99
2017-07-04T12:56:47.846Z,22.59
2017-07-04T12:57:57.803Z,22.74
2017-07-04T12:59:08.063Z,22.86
2017-07-04T13:00:18.373Z,22.86
2017-07-04T13:01:28.661Z,22.99
2017-07-04T13:02:39.147Z,23.06
2017-07-04T13:03:49.462Z,23.01
2017-07-04T13:04:59.690Z,22.68
2017-07-04T13:06:09.988Z,22.73
2017-07-04T13:07:20.283Z,22.78
2017-07-04T13:08:30.272Z,22.68
2017-07-04T13:09:40.237Z,22.77
2017-07-04T13:10:50.466Z,22.38
2017-07-04T13:12:00.420Z,22
2017-07-04T13:13:10.705Z,21.72
2017-07-04T13:14:21.046Z,21.6
2017-07-04T13:15:30.704Z,21.6
2017-07-04T13:16:41.237Z,21.56
2017-07-04T13:17:51.521Z,21.6
2017-07-04T13:19:01.799Z,21.89
2017-07-04T13:20:12.095Z,22.03
2017-07-04T13:21:22.380Z,22.14
2017-07-04T13:22:32.655Z,22.07
2017-07-04T13:23:42.609Z,21.96
2017-07-04T13:24:52.911Z,22.21
2017-07-04T13:26:02.236Z,22.21
2017-07-04T13:27:12.216Z,22.14
2017-07-04T13:28:22.505Z,22.38
2017-07-04T13:29:32.774Z,22.77
2017-07-04T13:30:43.061Z,22.86
2017-07-04T13:31:53.020Z,23.02
2017-07-04T13:33:03.299Z,23.02
2017-07-04T13:34:13.839Z,23.04
2017-07-04T13:35:24.103Z,23.17
2017-07-04T13:36:34.079Z,22.37
2017-07-04T13:37:44.035Z,22.1
2017-07-04T13:38:53.669Z,22.46
2017-07-04T13:40:04.204Z,22.89
2017-07-04T13:41:14.485Z,23.23
2017-07-04T13:42:24.436Z,23.62
2017-07-04T13:43:34.726Z,23.91
2017-07-04T13:44:45.013Z,23.7
2017-07-04T13:45:55.270Z,23.63
2017-07-04T13:47:05.537Z,22.98
2017-07-04T13:48:15.837Z,22.53
2017-07-04T13:49:26.116Z,22.33
2017-07-04T13:50:36.405Z,22.62
2017-07-04T13:51:46.381Z,22.77
2017-07-04T13:52:56.661Z,22.68
2017-07-04T13:54:06.935Z,22.67
2017-07-04T13:55:16.922Z,22.89
2017-07-04T13:56:27.144Z,22.83
2017-07-04T13:57:37.087Z,22.78
2017-07-04T13:58:47.376Z,22.19
2017-07-04T13:59:57.333Z,21.94
2017-07-04T14:01:07.603Z,21.94
2017-07-04T14:02:17.895Z,21.91
2017-07-04T14:03:28.438Z,21.85
2017-07-04T14:04:38.706Z,21.81
2017-07-04T14:05:48.674Z,21.94
2017-07-04T14:06:58.956Z,22.18
2017-07-04T14:08:08.603Z,22.22
2017-07-04T14:09:19.141Z,22.08
2017-07-04T14:10:29.101Z,22.15
2017-07-04T14:11:39.392Z,22.37
2017-07-04T14:12:49.365Z,22.18
2017-07-04T14:13:59.653Z,21.85
2017-07-04T14:15:09.889Z,21.47
2017-07-04T14:16:20.169Z,21.35
2017-07-04T14:17:30.454Z,21.43
2017-07-04T14:18:40.402Z,21.23
2017-07-04T14:19:50.658Z,21.3
2017-07-04T14:21:00.637Z,21.32
2017-07-04T14:22:10.584Z,21.26
2017-07-04T14:23:20.551Z,21.25
2017-07-04T14:24:30.517Z,21.35
2017-07-04T14:25:40.521Z,21.6
2017-07-04T14:26:50.791Z,21.66
2017-07-04T14:28:00.779Z,21.59
2017-07-04T14:29:11.058Z,21.6
2017-07-04T14:30:21.326Z,21.5
2017-07-04T14:31:31.297Z,21.58
2017-07-04T14:32:41.516Z,21.75
2017-07-04T14:33:52.308Z,22.1
2017-07-04T14:35:01.952Z,22.36
2017-07-04T14:36:11.910Z,22.61
2017-07-04T14:37:22.204Z,22.55
2017-07-04T14:38:32.753Z,22.73
2017-07-04T14:39:43.042Z,22.73
2017-07-04T14:40:53.341Z,22.63
2017-07-04T14:42:03.613Z,22.84
2017-07-04T14:43:13.603Z,23.02
2017-07-04T14:44:23.510Z,23.1
2017-07-04T14:45:33.782Z,23.17
2017-07-04T14:46:43.793Z,23.25
2017-07-04T14:47:54.087Z,23.28
2017-07-04T14:49:04.067Z,23.32
2017-07-04T14:50:14.585Z,23.25
2017-07-04T14:51:24.553Z,23.47
2017-07-04T14:52:34.842Z,23.76
2017-07-04T14:53:45.155Z,23.86
2017-07-04T14:54:55.448Z,23.76
2017-07-04T14:56:05.980Z,23.58
2017-07-04T14:57:15.942Z,23.56
2017-07-04T14:58:25.277Z,23.32
2017-07-04T14:59:35.558Z,23.26
2017-07-04T15:00:45.581Z,23.44
2017-07-04T15:01:56.115Z,23.06
2017-07-04T15:03:06.075Z,22.65
2017-07-04T15:04:16.354Z,22.68
2017-07-04T15:05:25.987Z,22.77
2017-07-04T15:06:35.934Z,22.84
2017-07-04T15:07:46.156Z,22.93